Terminal Aerodrome Forecast
Issued by NWS

Home | Current Version | Previous Version | Text Only | Print | Product List | Glossary On
Versions: 1 2 3 4 5 6 7 8 9 10 11 12 13 14 15 16 17
476
FTUS46 KEKA 071721
TAFCEC
TAF
KCEC 071721Z 0718/0818 VRB05KT P6SM SKC
     FM072000 35006KT P6SM SKC
     FM080500 04004KT P6SM SKC
     FM081300 VRB04KT P6SM SKC=

USA.gov is the U.S. government's official web portal to all federal, state and local government web resources and services.